sensor_id;sensor_type;location;lat;lon;timestamp;temperature;humidity
16327;DHT22;34812;49.846;9.610;2023-01-19T00:00:40;-4.60;99.90
16327;DHT22;34812;49.846;9.610;2023-01-19T00:01:42;-4.70;99.90
16327;DHT22;34812;49.846;9.610;2023-01-19T00:02:43;-4.70;99.90
16327;DHT22;34812;49.846;9.610;2023-01-19T00:03:46;-4.70;99.90
16327;DHT22;34812;49.846;9.610;2023-01-19T00:04:48;-4.70;99.90
16327;DHT22;34812;49.846;9.610;2023-01-19T00:05:49;-4.70;99.90
16327;DHT22;34812;49.846;9.610;2023-01-19T00:06:50;-4.70;99.90
16327;DHT22;34812;49.846;9.610;2023-01-19T00:07:52;-4.70;99.90
16327;DHT22;34812;49.846;9.610;2023-01-19T00:08:54;-4.70;99.90
16327;DHT22;34812;49.846;9.610;2023-01-19T00:09:56;-4.60;99.90
16327;DHT22;34812;49.846;9.610;2023-01-19T00:10:56;-4.60;99.90
16327;DHT22;34812;49.846;9.610;2023-01-19T00:11:58;-4.60;99.90
16327;DHT22;34812;49.846;9.610;2023-01-19T00:12:59;-4.60;99.90
16327;DHT22;34812;49.846;9.610;2023-01-19T00:14:01;-4.60;99.90
16327;DHT22;34812;49.846;9.610;2023-01-19T00:15:02;-4.60;99.90
16327;DHT22;34812;49.846;9.610;2023-01-19T00:16:04;-4.50;99.90
16327;DHT22;34812;49.846;9.610;2023-01-19T00:17:05;-4.60;99.90
16327;DHT22;34812;49.846;9.610;2023-01-19T00:18:07;-4.60;99.90
16327;DHT22;34812;49.846;9.610;2023-01-19T00:19:07;-4.60;99.90
16327;DHT22;34812;49.846;9.610;2023-01-19T00:20:10;-4.70;99.90
16327;DHT22;34812;49.846;9.610;2023-01-19T00:21:11;-4.70;99.90
16327;DHT22;34812;49.846;9.610;2023-01-19T00:22:14;-4.60;99.90
16327;DHT22;34812;49.846;9.610;2023-01-19T00:23:15;-4.60;99.90
16327;DHT22;34812;49.846;9.610;2023-01-19T00:24:17;-4.60;99.90
16327;DHT22;34812;49.846;9.610;2023-01-19T00:25:19;-4.70;99.90
16327;DHT22;34812;49.846;9.610;2023-01-19T00:26:20;-4.70;99.90
16327;DHT22;34812;49.846;9.610;2023-01-19T00:27:22;-4.70;99.90
16327;DHT22;34812;49.846;9.610;2023-01-19T00:28:23;-4.80;99.90
16327;DHT22;34812;49.846;9.610;2023-01-19T00:29:25;-4.60;99.90
16327;DHT22;34812;49.846;9.610;2023-01-19T00:30:27;-4.60;99.90
16327;DHT22;34812;49.846;9.610;2023-01-19T00:31:28;-4.50;99.90
16327;DHT22;34812;49.846;9.610;2023-01-19T00:32:29;-4.50;99.90
16327;DHT22;34812;49.846;9.610;2023-01-19T00:33:31;-4.40;99.90
16327;DHT22;34812;49.846;9.610;2023-01-19T00:34:31;-4.40;99.90
16327;DHT22;34812;49.846;9.610;2023-01-19T00:35:39;-4.40;99.90
16327;DHT22;34812;49.846;9.610;2023-01-19T00:36:42;-4.30;99.90
16327;DHT22;34812;49.846;9.610;2023-01-19T00:37:43;-4.30;99.90
16327;DHT22;34812;49.846;9.610;2023-01-19T00:38:45;-4.30;99.90
16327;DHT22;34812;49.846;9.610;2023-01-19T00:39:48;-4.30;99.90
16327;DHT22;34812;49.846;9.610;2023-01-19T00:40:49;-4.30;99.90
16327;DHT22;34812;49.846;9.610;2023-01-19T00:41:50;-4.30;99.90
16327;DHT22;34812;49.846;9.610;2023-01-19T00:43:09;-4.30;99.90
16327;DHT22;34812;49.846;9.610;2023-01-19T00:44:11;-4.40;99.90
16327;DHT22;34812;49.846;9.610;2023-01-19T00:45:14;-4.30;99.90
16327;DHT22;34812;49.846;9.610;2023-01-19T00:46:15;-4.30;99.90
16327;DHT22;34812;49.846;9.610;2023-01-19T00:47:17;-4.30;99.90
16327;DHT22;34812;49.846;9.610;2023-01-19T00:48:17;-4.40;99.90
16327;DHT22;34812;49.846;9.610;2023-01-19T00:49:19;-4.50;99.90
16327;DHT22;34812;49.846;9.610;2023-01-19T00:50:20;-4.50;99.90
16327;DHT22;34812;49.846;9.610;2023-01-19T00:51:22;-4.60;99.90
16327;DHT22;34812;49.846;9.610;2023-01-19T00:52:23;-4.60;99.90
16327;DHT22;34812;49.846;9.610;2023-01-19T00:53:24;-4.60;99.90
16327;DHT22;34812;49.846;9.610;2023-01-19T00:54:26;-4.60;99.90
16327;DHT22;34812;49.846;9.610;2023-01-19T00:55:29;-4.60;99.90
16327;DHT22;34812;49.846;9.610;2023-01-19T00:56:31;-4.60;99.90
16327;DHT22;34812;49.846;9.610;2023-01-19T00:57:31;-4.60;99.90
16327;DHT22;34812;49.846;9.610;2023-01-19T00:58:33;-4.60;99.90
16327;DHT22;34812;49.846;9.610;2023-01-19T00:59:34;-4.70;99.90
16327;DHT22;34812;49.846;9.610;2023-01-19T01:00:35;-4.70;99.90
16327;DHT22;34812;49.846;9.610;2023-01-19T01:01:36;-4.80;99.90
16327;DHT22;34812;49.846;9.610;2023-01-19T01:02:38;-4.80;99.90
16327;DHT22;34812;49.846;9.610;2023-01-19T01:03:39;-4.80;99.90
16327;DHT22;34812;49.846;9.610;2023-01-19T01:04:40;-4.90;99.90
16327;DHT22;34812;49.846;9.610;2023-01-19T01:05:41;-4.90;99.90
16327;DHT22;34812;49.846;9.610;2023-01-19T01:06:43;-4.90;99.90
16327;DHT22;34812;49.846;9.610;2023-01-19T01:07:44;-5.00;99.90
16327;DHT22;34812;49.846;9.610;2023-01-19T01:08:47;-4.90;99.90
16327;DHT22;34812;49.846;9.610;2023-01-19T01:09:48;-4.90;99.90
16327;DHT22;34812;49.846;9.610;2023-01-19T01:10:51;-4.90;99.90
16327;DHT22;34812;49.846;9.610;2023-01-19T01:11:52;-4.90;99.90
16327;DHT22;34812;49.846;9.610;2023-01-19T01:12:54;-5.00;99.90
16327;DHT22;34812;49.846;9.610;2023-01-19T01:13:55;-5.00;99.90
16327;DHT22;34812;49.846;9.610;2023-01-19T01:14:56;-5.00;99.90
16327;DHT22;34812;49.846;9.610;2023-01-19T01:15:57;-5.00;99.90
16327;DHT22;34812;49.846;9.610;2023-01-19T01:16:58;-5.00;99.90
16327;DHT22;34812;49.846;9.610;2023-01-19T01:18:00;-5.00;99.90
16327;DHT22;34812;49.846;9.610;2023-01-19T01:19:01;-5.00;99.90
16327;DHT22;34812;49.846;9.610;2023-01-19T01:20:03;-5.10;99.90
16327;DHT22;34812;49.846;9.610;2023-01-19T01:21:05;-5.10;99.90
16327;DHT22;34812;49.846;9.610;2023-01-19T01:22:06;-5.20;99.90
16327;DHT22;34812;49.846;9.610;2023-01-19T01:23:08;-5.20;99.90
16327;DHT22;34812;49.846;9.610;2023-01-19T01:24:09;-5.20;99.90
16327;DHT22;34812;49.846;9.610;2023-01-19T01:25:12;-5.20;99.90
16327;DHT22;34812;49.846;9.610;2023-01-19T01:26:14;-5.30;99.90
16327;DHT22;34812;49.846;9.610;2023-01-19T01:27:16;-5.30;99.90
16327;DHT22;34812;49.846;9.610;2023-01-19T01:28:16;-5.20;99.90
16327;DHT22;34812;49.846;9.610;2023-01-19T01:29:18;-5.10;99.90
16327;DHT22;34812;49.846;9.610;2023-01-19T01:30:19;-5.00;99.90
16327;DHT22;34812;49.846;9.610;2023-01-19T01:31:21;-4.90;99.90
16327;DHT22;34812;49.846;9.610;2023-01-19T01:32:22;-4.90;99.90
16327;DHT22;34812;49.846;9.610;2023-01-19T01:33:24;-4.90;99.90
16327;DHT22;34812;49.846;9.610;2023-01-19T01:34:24;-4.90;99.90
16327;DHT22;34812;49.846;9.610;2023-01-19T01:35:26;-4.90;99.90
16327;DHT22;34812;49.846;9.610;2023-01-19T01:36:27;-4.80;99.90
16327;DHT22;34812;49.846;9.610;2023-01-19T01:37:31;-4.90;99.90
16327;DHT22;34812;49.846;9.610;2023-01-19T01:38:32;-4.90;99.90
16327;DHT22;34812;49.846;9.610;2023-01-19T01:39:33;-4.90;99.90
16327;DHT22;34812;49.846;9.610;2023-01-19T01:40:34;-4.90;99.90
16327;DHT22;34812;49.846;9.610;2023-01-19T01:41:40;-4.90;99.90
16327;DHT22;34812;49.846;9.610;2023-01-19T01:42:41;-5.00;99.90
16327;DHT22;34812;49.846;9.610;2023-01-19T01:43:46;-5.00;99.90
16327;DHT22;34812;49.846;9.610;2023-01-19T01:44:49;-5.10;99.90
16327;DHT22;34812;49.846;9.610;2023-01-19T01:45:51;-5.20;99.90
16327;DHT22;34812;49.846;9.610;2023-01-19T01:46:53;-5.20;99.90
16327;DHT22;34812;49.846;9.610;2023-01-19T01:47:57;-5.20;99.90
16327;DHT22;34812;49.846;9.610;2023-01-19T01:49:04;-5.30;99.90
16327;DHT22;34812;49.846;9.610;2023-01-19T01:50:10;-5.30;99.90
16327;DHT22;34812;49.846;9.610;2023-01-19T01:51:15;-5.30;99.90
16327;DHT22;34812;49.846;9.610;2023-01-19T01:52:26;-5.30;99.90
16327;DHT22;34812;49.846;9.610;2023-01-19T01:53:29;-5.20;99.90
16327;DHT22;34812;49.846;9.610;2023-01-19T01:54:32;-5.20;99.90
16327;DHT22;34812;49.846;9.610;2023-01-19T01:55:35;-5.30;99.90
16327;DHT22;34812;49.846;9.610;2023-01-19T01:56:41;-5.30;99.90
16327;DHT22;34812;49.846;9.610;2023-01-19T01:57:45;-5.20;99.90
16327;DHT22;34812;49.846;9.610;2023-01-19T01:58:48;-5.20;99.90
16327;DHT22;34812;49.846;9.610;2023-01-19T01:59:50;-5.10;99.90
16327;DHT22;34812;49.846;9.610;2023-01-19T02:00:51;-5.00;99.90
16327;DHT22;34812;49.846;9.610;2023-01-19T02:02:15;-5.00;99.90
16327;DHT22;34812;49.846;9.610;2023-01-19T02:03:35;-5.00;99.90
16327;DHT22;34812;49.846;9.610;2023-01-19T02:04:37;-4.90;99.90
16327;DHT22;34812;49.846;9.610;2023-01-19T02:05:40;-4.90;99.90
16327;DHT22;34812;49.846;9.610;2023-01-19T02:06:42;-5.00;99.90
16327;DHT22;34812;49.846;9.610;2023-01-19T02:08:03;-5.00;99.90
16327;DHT22;34812;49.846;9.610;2023-01-19T02:09:26;-5.00;99.90
16327;DHT22;34812;49.846;9.610;2023-01-19T02:10:47;-5.10;99.90
16327;DHT22;34812;49.846;9.610;2023-01-19T02:12:08;-5.10;99.90
16327;DHT22;34812;49.846;9.610;2023-01-19T02:13:28;-5.10;99.90
16327;DHT22;34812;49.846;9.610;2023-01-19T02:14:30;-5.10;99.90
16327;DHT22;34812;49.846;9.610;2023-01-19T02:15:31;-5.10;99.90
16327;DHT22;34812;49.846;9.610;2023-01-19T02:16:33;-5.20;99.90
16327;DHT22;34812;49.846;9.610;2023-01-19T02:17:34;-5.20;99.90
16327;DHT22;34812;49.846;9.610;2023-01-19T02:18:36;-5.20;99.90
16327;DHT22;34812;49.846;9.610;2023-01-19T02:19:40;-5.20;99.90
16327;DHT22;34812;49.846;9.610;2023-01-19T02:20:46;-5.20;99.90
16327;DHT22;34812;49.846;9.610;2023-01-19T02:21:53;-5.20;99.90
16327;DHT22;34812;49.846;9.610;2023-01-19T02:22:55;-5.20;99.90
16327;DHT22;34812;49.846;9.610;2023-01-19T02:24:02;-5.20;99.90
16327;DHT22;34812;49.846;9.610;2023-01-19T02:25:05;-5.20;99.90
16327;DHT22;34812;49.846;9.610;2023-01-19T02:26:08;-5.20;99.90
16327;DHT22;34812;49.846;9.610;2023-01-19T02:27:11;-5.20;99.90
16327;DHT22;34812;49.846;9.610;2023-01-19T02:28:12;-5.20;99.90
16327;DHT22;34812;49.846;9.610;2023-01-19T02:29:17;-5.20;99.90
16327;DHT22;34812;49.846;9.610;2023-01-19T02:30:18;-5.20;99.90
16327;DHT22;34812;49.846;9.610;2023-01-19T02:31:20;-5.20;99.90
16327;DHT22;34812;49.846;9.610;2023-01-19T02:32:20;-5.20;99.90
16327;DHT22;34812;49.846;9.610;2023-01-19T02:33:22;-5.20;99.90
16327;DHT22;34812;49.846;9.610;2023-01-19T02:34:23;-5.10;99.90
16327;DHT22;34812;49.846;9.610;2023-01-19T02:35:26;-5.10;99.90
16327;DHT22;34812;49.846;9.610;2023-01-19T02:36:30;-5.00;99.90
16327;DHT22;34812;49.846;9.610;2023-01-19T02:37:35;-5.00;99.90
16327;DHT22;34812;49.846;9.610;2023-01-19T02:38:38;-4.90;99.90
16327;DHT22;34812;49.846;9.610;2023-01-19T02:39:44;-4.90;99.90
16327;DHT22;34812;49.846;9.610;2023-01-19T02:40:45;-4.90;99.90
16327;DHT22;34812;49.846;9.610;2023-01-19T02:41:51;-4.90;99.90
16327;DHT22;34812;49.846;9.610;2023-01-19T02:42:56;-4.90;99.90
16327;DHT22;34812;49.846;9.610;2023-01-19T02:44:00;-4.90;99.90
16327;DHT22;34812;49.846;9.610;2023-01-19T02:45:02;-5.00;99.90
16327;DHT22;34812;49.846;9.610;2023-01-19T02:46:06;-5.00;99.90
16327;DHT22;34812;49.846;9.610;2023-01-19T02:47:07;-5.00;99.90
16327;DHT22;34812;49.846;9.610;2023-01-19T02:48:09;-5.00;99.90
16327;DHT22;34812;49.846;9.610;2023-01-19T02:49:10;-5.00;99.90
16327;DHT22;34812;49.846;9.610;2023-01-19T02:50:34;-5.00;99.90
16327;DHT22;34812;49.846;9.610;2023-01-19T02:51:35;-5.00;99.90
16327;DHT22;34812;49.846;9.610;2023-01-19T02:52:37;-5.00;99.90
16327;DHT22;34812;49.846;9.610;2023-01-19T02:54:01;-5.00;99.90
16327;DHT22;34812;49.846;9.610;2023-01-19T02:55:11;-4.90;99.90
16327;DHT22;34812;49.846;9.610;2023-01-19T02:56:34;-4.90;99.90
16327;DHT22;34812;49.846;9.610;2023-01-19T02:57:49;-4.90;99.90
16327;DHT22;34812;49.846;9.610;2023-01-19T02:58:59;-4.90;99.90
16327;DHT22;34812;49.846;9.610;2023-01-19T03:00:13;-4.90;99.90
16327;DHT22;34812;49.846;9.610;2023-01-19T03:01:22;-4.90;99.90
16327;DHT22;34812;49.846;9.610;2023-01-19T03:02:32;-4.90;99.90
16327;DHT22;34812;49.846;9.610;2023-01-19T03:03:41;-4.90;99.90
16327;DHT22;34812;49.846;9.610;2023-01-19T03:04:56;-4.90;99.90
16327;DHT22;34812;49.846;9.610;2023-01-19T03:06:04;-4.90;99.90
16327;DHT22;34812;49.846;9.610;2023-01-19T03:07:12;-5.00;99.90
16327;DHT22;34812;49.846;9.610;2023-01-19T03:08:19;-5.00;99.90
16327;DHT22;34812;49.846;9.610;2023-01-19T03:09:28;-5.10;99.90
16327;DHT22;34812;49.846;9.610;2023-01-19T03:10:39;-5.10;99.90
16327;DHT22;34812;49.846;9.610;2023-01-19T03:11:50;-5.10;99.90
16327;DHT22;34812;49.846;9.610;2023-01-19T03:12:55;-5.10;99.90
16327;DHT22;34812;49.846;9.610;2023-01-19T03:14:06;-5.10;99.90
16327;DHT22;34812;49.846;9.610;2023-01-19T03:15:13;-5.00;99.90
16327;DHT22;34812;49.846;9.610;2023-01-19T03:16:19;-5.00;99.90
16327;DHT22;34812;49.846;9.610;2023-01-19T03:17:21;-5.00;99.90
16327;DHT22;34812;49.846;9.610;2023-01-19T03:18:25;-4.90;99.90
16327;DHT22;34812;49.846;9.610;2023-01-19T03:19:30;-4.90;99.90
16327;DHT22;34812;49.846;9.610;2023-01-19T03:20:32;-4.80;99.90
16327;DHT22;34812;49.846;9.610;2023-01-19T03:21:34;-4.80;99.90
16327;DHT22;34812;49.846;9.610;2023-01-19T03:22:37;-4.70;99.90
16327;DHT22;34812;49.846;9.610;2023-01-19T03:23:40;-4.60;99.90
16327;DHT22;34812;49.846;9.610;2023-01-19T03:24:45;-4.50;99.90
16327;DHT22;34812;49.846;9.610;2023-01-19T03:25:49;-4.40;99.90
16327;DHT22;34812;49.846;9.610;2023-01-19T03:26:54;-4.40;99.90
16327;DHT22;34812;49.846;9.610;2023-01-19T03:27:58;-4.40;99.90
16327;DHT22;34812;49.846;9.610;2023-01-19T03:29:01;-4.40;99.90
16327;DHT22;34812;49.846;9.610;2023-01-19T03:30:06;-4.30;99.90
16327;DHT22;34812;49.846;9.610;2023-01-19T03:31:14;-4.40;99.90
16327;DHT22;34812;49.846;9.610;2023-01-19T03:32:17;-4.50;99.90
16327;DHT22;34812;49.846;9.610;2023-01-19T03:33:23;-4.50;99.90
16327;DHT22;34812;49.846;9.610;2023-01-19T03:34:27;-4.60;99.90
16327;DHT22;34812;49.846;9.610;2023-01-19T03:35:31;-4.60;99.90
16327;DHT22;34812;49.846;9.610;2023-01-19T03:36:35;-4.60;99.90
16327;DHT22;34812;49.846;9.610;2023-01-19T03:37:39;-4.50;99.90
16327;DHT22;34812;49.846;9.610;2023-01-19T03:38:42;-4.50;99.90
16327;DHT22;34812;49.846;9.610;2023-01-19T03:39:46;-4.50;99.90
16327;DHT22;34812;49.846;9.610;2023-01-19T03:40:49;-4.50;99.90
16327;DHT22;34812;49.846;9.610;2023-01-19T03:41:53;-4.50;99.90
16327;DHT22;34812;49.846;9.610;2023-01-19T03:42:54;-4.60;99.90
16327;DHT22;34812;49.846;9.610;2023-01-19T03:43:56;-4.60;99.90
16327;DHT22;34812;49.846;9.610;2023-01-19T03:44:59;-4.60;99.90
16327;DHT22;34812;49.846;9.610;2023-01-19T03:46:02;-4.60;99.90
16327;DHT22;34812;49.846;9.610;2023-01-19T03:47:04;-4.60;99.90
16327;DHT22;34812;49.846;9.610;2023-01-19T03:48:06;-4.70;99.90
16327;DHT22;34812;49.846;9.610;2023-01-19T03:49:08;-4.70;99.90
16327;DHT22;34812;49.846;9.610;2023-01-19T03:50:13;-4.60;99.90
16327;DHT22;34812;49.846;9.610;2023-01-19T03:51:18;-4.60;99.90
16327;DHT22;34812;49.846;9.610;2023-01-19T03:52:27;-4.60;99.90
16327;DHT22;34812;49.846;9.610;2023-01-19T03:53:28;-4.50;99.90
16327;DHT22;34812;49.846;9.610;2023-01-19T03:54:30;-4.50;99.90
16327;DHT22;34812;49.846;9.610;2023-01-19T03:55:31;-4.40;99.90
16327;DHT22;34812;49.846;9.610;2023-01-19T03:56:34;-4.40;99.90
16327;DHT22;34812;49.846;9.610;2023-01-19T03:57:36;-4.40;99.90
16327;DHT22;34812;49.846;9.610;2023-01-19T03:58:37;-4.40;99.90
16327;DHT22;34812;49.846;9.610;2023-01-19T03:59:38;-4.30;99.90
16327;DHT22;34812;49.846;9.610;2023-01-19T04:00:40;-4.30;99.90
16327;DHT22;34812;49.846;9.610;2023-01-19T04:01:40;-4.30;99.90
16327;DHT22;34812;49.846;9.610;2023-01-19T04:02:42;-4.30;99.90
16327;DHT22;34812;49.846;9.610;2023-01-19T04:03:43;-4.30;99.90
16327;DHT22;34812;49.846;9.610;2023-01-19T04:04:46;-4.30;99.90
16327;DHT22;34812;49.846;9.610;2023-01-19T04:05:47;-4.30;99.90
16327;DHT22;34812;49.846;9.610;2023-01-19T04:06:49;-4.20;99.90
16327;DHT22;34812;49.846;9.610;2023-01-19T04:07:50;-4.20;99.90
16327;DHT22;34812;49.846;9.610;2023-01-19T04:08:52;-4.20;99.90
16327;DHT22;34812;49.846;9.610;2023-01-19T04:09:53;-4.10;99.90
16327;DHT22;34812;49.846;9.610;2023-01-19T04:10:56;-4.10;99.90
16327;DHT22;34812;49.846;9.610;2023-01-19T04:11:58;-4.10;99.90
16327;DHT22;34812;49.846;9.610;2023-01-19T04:13:02;-4.00;99.90
16327;DHT22;34812;49.846;9.610;2023-01-19T04:14:02;-4.10;99.90
16327;DHT22;34812;49.846;9.610;2023-01-19T04:15:05;-4.00;99.90
16327;DHT22;34812;49.846;9.610;2023-01-19T04:16:08;-4.00;99.90
16327;DHT22;34812;49.846;9.610;2023-01-19T04:17:10;-3.90;99.90
16327;DHT22;34812;49.846;9.610;2023-01-19T04:18:11;-3.90;99.90
16327;DHT22;34812;49.846;9.610;2023-01-19T04:19:13;-3.90;99.90
16327;DHT22;34812;49.846;9.610;2023-01-19T04:20:13;-3.90;99.90
16327;DHT22;34812;49.846;9.610;2023-01-19T04:21:15;-3.90;99.90
16327;DHT22;34812;49.846;9.610;2023-01-19T04:22:16;-3.90;99.90
16327;DHT22;34812;49.846;9.610;2023-01-19T04:23:18;-3.90;99.90
16327;DHT22;34812;49.846;9.610;2023-01-19T04:24:18;-3.90;99.90
16327;DHT22;34812;49.846;9.610;2023-01-19T04:25:20;-4.00;99.90
16327;DHT22;34812;49.846;9.610;2023-01-19T04:26:21;-4.00;99.90
16327;DHT22;34812;49.846;9.610;2023-01-19T04:27:24;-4.00;99.90
16327;DHT22;34812;49.846;9.610;2023-01-19T04:28:26;-4.00;99.90
16327;DHT22;34812;49.846;9.610;2023-01-19T04:29:27;-4.10;99.90
16327;DHT22;34812;49.846;9.610;2023-01-19T04:30:28;-4.10;99.90
16327;DHT22;34812;49.846;9.610;2023-01-19T04:31:30;-4.20;99.90
16327;DHT22;34812;49.846;9.610;2023-01-19T04:32:31;-4.10;99.90
16327;DHT22;34812;49.846;9.610;2023-01-19T04:33:33;-4.20;99.90
16327;DHT22;34812;49.846;9.610;2023-01-19T04:34:34;-4.20;99.90
16327;DHT22;34812;49.846;9.610;2023-01-19T04:35:35;-4.20;99.90
16327;DHT22;34812;49.846;9.610;2023-01-19T04:36:36;-4.20;99.90
16327;DHT22;34812;49.846;9.610;2023-01-19T04:37:38;-4.20;99.90
16327;DHT22;34812;49.846;9.610;2023-01-19T04:38:39;-4.20;99.90
16327;DHT22;34812;49.846;9.610;2023-01-19T04:39:41;-4.20;99.90
16327;DHT22;34812;49.846;9.610;2023-01-19T04:40:42;-4.20;99.90
16327;DHT22;34812;49.846;9.610;2023-01-19T04:41:43;-4.20;99.90
16327;DHT22;34812;49.846;9.610;2023-01-19T04:42:46;-4.20;99.90
16327;DHT22;34812;49.846;9.610;2023-01-19T04:43:48;-4.20;99.90
16327;DHT22;34812;49.846;9.610;2023-01-19T04:44:49;-4.30;99.90
16327;DHT22;34812;49.846;9.610;2023-01-19T04:45:51;-4.30;99.90
16327;DHT22;34812;49.846;9.610;2023-01-19T04:46:52;-4.30;99.90
16327;DHT22;34812;49.846;9.610;2023-01-19T04:47:54;-4.20;99.90
16327;DHT22;34812;49.846;9.610;2023-01-19T04:48:54;-4.10;99.90
16327;DHT22;34812;49.846;9.610;2023-01-19T04:49:56;-4.10;99.90
16327;DHT22;34812;49.846;9.610;2023-01-19T04:50:57;-4.00;99.90
16327;DHT22;34812;49.846;9.610;2023-01-19T04:51:58;-4.00;99.90
16327;DHT22;34812;49.846;9.610;2023-01-19T04:53:00;-4.00;99.90
16327;DHT22;34812;49.846;9.610;2023-01-19T04:54:02;-4.00;99.90
16327;DHT22;34812;49.846;9.610;2023-01-19T04:55:04;-3.90;99.90
16327;DHT22;34812;49.846;9.610;2023-01-19T04:56:06;-3.90;99.90
16327;DHT22;34812;49.846;9.610;2023-01-19T04:57:07;-3.90;99.90
16327;DHT22;34812;49.846;9.610;2023-01-19T04:58:10;-3.90;99.90
16327;DHT22;34812;49.846;9.610;2023-01-19T04:59:11;-3.90;99.90
16327;DHT22;34812;49.846;9.610;2023-01-19T05:00:13;-3.90;99.90
16327;DHT22;34812;49.846;9.610;2023-01-19T05:01:14;-3.90;99.90
16327;DHT22;34812;49.846;9.610;2023-01-19T05:02:16;-3.90;99.90
16327;DHT22;34812;49.846;9.610;2023-01-19T05:03:17;-3.90;99.90
16327;DHT22;34812;49.846;9.610;2023-01-19T05:04:19;-3.90;99.90
16327;DHT22;34812;49.846;9.610;2023-01-19T05:05:21;-3.90;99.90
16327;DHT22;34812;49.846;9.610;2023-01-19T05:06:23;-3.90;99.90
16327;DHT22;34812;49.846;9.610;2023-01-19T05:07:24;-3.90;99.90
16327;DHT22;34812;49.846;9.610;2023-01-19T05:08:25;-3.80;99.90
16327;DHT22;34812;49.846;9.610;2023-01-19T05:09:26;-3.90;99.90
16327;DHT22;34812;49.846;9.610;2023-01-19T05:10:28;-3.90;99.90
16327;DHT22;34812;49.846;9.610;2023-01-19T05:11:28;-3.90;99.90
16327;DHT22;34812;49.846;9.610;2023-01-19T05:12:30;-3.90;99.90
16327;DHT22;34812;49.846;9.610;2023-01-19T05:13:32;-3.90;99.90
16327;DHT22;34812;49.846;9.610;2023-01-19T05:14:34;-4.00;99.90
16327;DHT22;34812;49.846;9.610;2023-01-19T05:15:35;-4.00;99.90
16327;DHT22;34812;49.846;9.610;2023-01-19T05:16:36;-4.00;99.90
16327;DHT22;34812;49.846;9.610;2023-01-19T05:17:37;-4.10;99.90
16327;DHT22;34812;49.846;9.610;2023-01-19T05:18:39;-4.10;99.90
16327;DHT22;34812;49.846;9.610;2023-01-19T05:19:40;-4.10;99.90
16327;DHT22;34812;49.846;9.610;2023-01-19T05:20:41;-4.10;99.90
16327;DHT22;34812;49.846;9.610;2023-01-19T05:21:43;-4.10;99.90
16327;DHT22;34812;49.846;9.610;2023-01-19T05:22:48;-4.10;99.90
16327;DHT22;34812;49.846;9.610;2023-01-19T05:23:50;-4.20;99.90
16327;DHT22;34812;49.846;9.610;2023-01-19T05:24:51;-4.20;99.90
16327;DHT22;34812;49.846;9.610;2023-01-19T05:25:52;-4.20;99.90
16327;DHT22;34812;49.846;9.610;2023-01-19T05:26:55;-4.30;99.90
16327;DHT22;34812;49.846;9.610;2023-01-19T05:27:57;-4.30;99.90
16327;DHT22;34812;49.846;9.610;2023-01-19T05:28:59;-4.30;99.90
16327;DHT22;34812;49.846;9.610;2023-01-19T05:30:01;-4.30;99.90
16327;DHT22;34812;49.846;9.610;2023-01-19T05:31:02;-4.30;99.90
16327;DHT22;34812;49.846;9.610;2023-01-19T05:32:04;-4.30;99.90
16327;DHT22;34812;49.846;9.610;2023-01-19T05:33:05;-4.30;99.90
16327;DHT22;34812;49.846;9.610;2023-01-19T05:34:10;-4.30;99.90
16327;DHT22;34812;49.846;9.610;2023-01-19T05:35:11;-4.30;99.90
16327;DHT22;34812;49.846;9.610;2023-01-19T05:36:13;-4.30;99.90
16327;DHT22;34812;49.846;9.610;2023-01-19T05:37:14;-4.30;99.90
16327;DHT22;34812;49.846;9.610;2023-01-19T05:38:16;-4.40;99.90
16327;DHT22;34812;49.846;9.610;2023-01-19T05:39:17;-4.40;99.90
16327;DHT22;34812;49.846;9.610;2023-01-19T05:40:19;-4.40;99.90
16327;DHT22;34812;49.846;9.610;2023-01-19T05:41:20;-4.40;99.90
16327;DHT22;34812;49.846;9.610;2023-01-19T05:42:21;-4.50;99.90
16327;DHT22;34812;49.846;9.610;2023-01-19T05:43:22;-4.50;99.90
16327;DHT22;34812;49.846;9.610;2023-01-19T05:44:26;-4.50;99.90
16327;DHT22;34812;49.846;9.610;2023-01-19T05:45:26;-4.60;99.90
16327;DHT22;34812;49.846;9.610;2023-01-19T05:46:28;-4.60;99.90
16327;DHT22;34812;49.846;9.610;2023-01-19T05:47:29;-4.70;99.90
16327;DHT22;34812;49.846;9.610;2023-01-19T05:48:31;-4.70;99.90
16327;DHT22;34812;49.846;9.610;2023-01-19T05:49:31;-4.80;99.90
16327;DHT22;34812;49.846;9.610;2023-01-19T05:50:34;-4.80;99.90
16327;DHT22;34812;49.846;9.610;2023-01-19T05:51:35;-4.80;99.90
16327;DHT22;34812;49.846;9.610;2023-01-19T05:52:37;-4.90;99.90
16327;DHT22;34812;49.846;9.610;2023-01-19T05:53:38;-4.90;99.90
16327;DHT22;34812;49.846;9.610;2023-01-19T05:54:40;-4.80;99.90
16327;DHT22;34812;49.846;9.610;2023-01-19T05:55:41;-4.70;99.90
16327;DHT22;34812;49.846;9.610;2023-01-19T05:56:43;-4.60;99.90
16327;DHT22;34812;49.846;9.610;2023-01-19T05:57:43;-4.50;99.90
16327;DHT22;34812;49.846;9.610;2023-01-19T05:58:45;-4.50;99.90
16327;DHT22;34812;49.846;9.610;2023-01-19T05:59:47;-4.60;99.90
16327;DHT22;34812;49.846;9.610;2023-01-19T06:00:49;-4.60;99.90
16327;DHT22;34812;49.846;9.610;2023-01-19T06:01:49;-4.70;99.90
16327;DHT22;34812;49.846;9.610;2023-01-19T06:02:51;-4.80;99.90
16327;DHT22;34812;49.846;9.610;2023-01-19T06:03:52;-4.80;99.90
16327;DHT22;34812;49.846;9.610;2023-01-19T06:04:54;-4.80;99.90
16327;DHT22;34812;49.846;9.610;2023-01-19T06:05:56;-4.90;99.90
16327;DHT22;34812;49.846;9.610;2023-01-19T06:06:57;-4.90;99.90
16327;DHT22;34812;49.846;9.610;2023-01-19T06:07:58;-4.90;99.90
16327;DHT22;34812;49.846;9.610;2023-01-19T06:09:00;-4.90;99.90
16327;DHT22;34812;49.846;9.610;2023-01-19T06:10:01;-4.90;99.90
16327;DHT22;34812;49.846;9.610;2023-01-19T06:11:04;-4.90;99.90
16327;DHT22;34812;49.846;9.610;2023-01-19T06:12:05;-4.90;99.90
16327;DHT22;34812;49.846;9.610;2023-01-19T06:13:07;-4.90;99.90
16327;DHT22;34812;49.846;9.610;2023-01-19T06:14:10;-4.90;99.90
16327;DHT22;34812;49.846;9.610;2023-01-19T06:15:14;-4.80;99.90
16327;DHT22;34812;49.846;9.610;2023-01-19T06:16:14;-4.80;99.90
16327;DHT22;34812;49.846;9.610;2023-01-19T06:17:16;-4.80;99.90
16327;DHT22;34812;49.846;9.610;2023-01-19T06:18:17;-4.80;99.90
16327;DHT22;34812;49.846;9.610;2023-01-19T06:19:19;-4.90;99.90
16327;DHT22;34812;49.846;9.610;2023-01-19T06:20:20;-4.90;99.90
16327;DHT22;34812;49.846;9.610;2023-01-19T06:21:21;-4.90;99.90
16327;DHT22;34812;49.846;9.610;2023-01-19T06:22:22;-5.00;99.90
16327;DHT22;34812;49.846;9.610;2023-01-19T06:23:24;-5.00;99.90
16327;DHT22;34812;49.846;9.610;2023-01-19T06:24:25;-5.00;99.90
16327;DHT22;34812;49.846;9.610;2023-01-19T06:25:27;-5.00;99.90
16327;DHT22;34812;49.846;9.610;2023-01-19T06:26:28;-5.00;99.90
16327;DHT22;34812;49.846;9.610;2023-01-19T06:27:29;-5.10;99.90
16327;DHT22;34812;49.846;9.610;2023-01-19T06:28:30;-5.10;99.90
16327;DHT22;34812;49.846;9.610;2023-01-19T06:29:32;-5.10;99.90
16327;DHT22;34812;49.846;9.610;2023-01-19T06:30:34;-5.10;99.90
16327;DHT22;34812;49.846;9.610;2023-01-19T06:31:35;-5.20;99.90
16327;DHT22;34812;49.846;9.610;2023-01-19T06:32:36;-5.20;99.90
16327;DHT22;34812;49.846;9.610;2023-01-19T06:33:38;-5.20;99.90
16327;DHT22;34812;49.846;9.610;2023-01-19T06:34:39;-5.20;99.90
16327;DHT22;34812;49.846;9.610;2023-01-19T06:35:43;-5.10;99.90
16327;DHT22;34812;49.846;9.610;2023-01-19T06:36:43;-5.10;99.90
16327;DHT22;34812;49.846;9.610;2023-01-19T06:37:45;-5.10;99.90